sensor_id;sensor_type;location;lat;lon;timestamp;pressure;altitude;pressure_sealevel;temperature;humidity
61528;BME280;47395;42.032;-8.634;2023-05-22T00:01:22;100545.53;;;18.34;52.47
61528;BME280;47395;42.032;-8.634;2023-05-22T00:03:25;100538.25;;;18.36;52.21
61528;BME280;47395;42.032;-8.634;2023-05-22T00:05:28;100556.06;;;18.35;52.30
61528;BME280;47395;42.032;-8.634;2023-05-22T00:07:30;100546.19;;;18.26;52.34
61528;BME280;47395;42.032;-8.634;2023-05-22T00:09:31;100546.75;;;18.30;52.74
61528;BME280;47395;42.032;-8.634;2023-05-22T00:11:31;100543.84;;;18.33;52.44
61528;BME280;47395;42.032;-8.634;2023-05-22T00:13:34;100554.63;;;18.31;52.55
61528;BME280;47395;42.032;-8.634;2023-05-22T00:15:35;100558.72;;;18.35;51.99
61528;BME280;47395;42.032;-8.634;2023-05-22T00:17:36;100558.84;;;18.34;51.30
61528;BME280;47395;42.032;-8.634;2023-05-22T00:19:36;100559.31;;;18.18;51.94
61528;BME280;47395;42.032;-8.634;2023-05-22T00:21:40;100553.72;;;18.21;52.66
61528;BME280;47395;42.032;-8.634;2023-05-22T00:23:42;100565.09;;;18.23;52.07
61528;BME280;47395;42.032;-8.634;2023-05-22T00:25:43;100562.97;;;18.17;52.63
61528;BME280;47395;42.032;-8.634;2023-05-22T00:27:43;100547.22;;;18.13;52.36
61528;BME280;47395;42.032;-8.634;2023-05-22T00:29:44;100561.53;;;18.12;52.32
61528;BME280;47395;42.032;-8.634;2023-05-22T00:31:45;100566.72;;;18.14;52.44
61528;BME280;47395;42.032;-8.634;2023-05-22T00:33:46;100553.66;;;18.11;52.77
61528;BME280;47395;42.032;-8.634;2023-05-22T00:35:46;100569.03;;;18.07;52.60
61528;BME280;47395;42.032;-8.634;2023-05-22T00:37:47;100570.28;;;17.92;52.60
61528;BME280;47395;42.032;-8.634;2023-05-22T00:39:48;100568.38;;;17.94;53.12
61528;BME280;47395;42.032;-8.634;2023-05-22T00:41:49;100554.56;;;17.88;53.15
61528;BME280;47395;42.032;-8.634;2023-05-22T00:43:49;100558.81;;;17.91;53.07
61528;BME280;47395;42.032;-8.634;2023-05-22T00:45:50;100558.81;;;17.91;53.32
61528;BME280;47395;42.032;-8.634;2023-05-22T00:47:51;100577.13;;;17.84;53.09
61528;BME280;47395;42.032;-8.634;2023-05-22T00:49:53;100576.38;;;17.82;53.47
61528;BME280;47395;42.032;-8.634;2023-05-22T00:51:54;100576.38;;;17.82;53.79
61528;BME280;47395;42.032;-8.634;2023-05-22T00:53:56;100559.59;;;17.70;53.59
61528;BME280;47395;42.032;-8.634;2023-05-22T00:55:57;100570.59;;;17.77;53.46
61528;BME280;47395;42.032;-8.634;2023-05-22T00:57:59;100565.38;;;17.75;53.58
61528;BME280;47395;42.032;-8.634;2023-05-22T01:00:02;100574.56;;;17.83;53.38
61528;BME280;47395;42.032;-8.634;2023-05-22T01:02:05;100576.56;;;17.69;53.63
61528;BME280;47395;42.032;-8.634;2023-05-22T01:04:09;100572.34;;;17.55;54.05
61528;BME280;47395;42.032;-8.634;2023-05-22T01:06:15;100579.88;;;17.39;54.29
61528;BME280;47395;42.032;-8.634;2023-05-22T01:08:17;100565.34;;;17.43;54.74
61528;BME280;47395;42.032;-8.634;2023-05-22T01:10:18;100559.53;;;17.49;54.74
61528;BME280;47395;42.032;-8.634;2023-05-22T01:15:35;100562.31;;;17.47;54.39
61528;BME280;47395;42.032;-8.634;2023-05-22T01:18:06;100568.75;;;17.45;54.44
61528;BME280;47395;42.032;-8.634;2023-05-22T01:20:31;100559.16;;;17.54;54.76
61528;BME280;47395;42.032;-8.634;2023-05-22T01:28:17;100562.81;;;17.41;54.74
61528;BME280;47395;42.032;-8.634;2023-05-22T01:30:46;100571.53;;;17.55;54.46
61528;BME280;47395;42.032;-8.634;2023-05-22T01:32:48;100571.13;;;17.48;54.86
61528;BME280;47395;42.032;-8.634;2023-05-22T01:34:53;100576.84;;;17.43;54.92
61528;BME280;47395;42.032;-8.634;2023-05-22T01:36:55;100565.84;;;17.37;54.74
61528;BME280;47395;42.032;-8.634;2023-05-22T01:39:00;100574.06;;;17.33;55.09
61528;BME280;47395;42.032;-8.634;2023-05-22T01:41:04;100574.69;;;17.37;55.11
61528;BME280;47395;42.032;-8.634;2023-05-22T01:43:05;100568.50;;;17.37;54.98
61528;BME280;47395;42.032;-8.634;2023-05-22T01:45:10;100581.59;;;17.40;54.84
61528;BME280;47395;42.032;-8.634;2023-05-22T01:47:12;100578.56;;;17.33;55.10
61528;BME280;47395;42.032;-8.634;2023-05-22T01:49:14;100580.16;;;17.24;55.40
61528;BME280;47395;42.032;-8.634;2023-05-22T01:51:22;100575.66;;;17.13;55.48
61528;BME280;47395;42.032;-8.634;2023-05-22T01:53:32;100588.00;;;17.14;55.79
61528;BME280;47395;42.032;-8.634;2023-05-22T01:55:51;100572.75;;;17.05;55.61
61528;BME280;47395;42.032;-8.634;2023-05-22T01:57:59;100584.00;;;16.97;55.97
61528;BME280;47395;42.032;-8.634;2023-05-22T02:00:11;100589.22;;;17.10;55.62
61528;BME280;47395;42.032;-8.634;2023-05-22T02:02:18;100600.97;;;17.19;55.48
61528;BME280;47395;42.032;-8.634;2023-05-22T02:04:21;100605.06;;;17.12;55.99
61528;BME280;47395;42.032;-8.634;2023-05-22T02:06:25;100602.16;;;17.15;55.55
61528;BME280;47395;42.032;-8.634;2023-05-22T02:08:28;100603.63;;;17.07;55.92
61528;BME280;47395;42.032;-8.634;2023-05-22T02:10:30;100594.41;;;17.12;55.92
61528;BME280;47395;42.032;-8.634;2023-05-22T02:12:33;100602.78;;;17.07;56.03
61528;BME280;47395;42.032;-8.634;2023-05-22T02:14:37;100593.44;;;17.01;56.15
61528;BME280;47395;42.032;-8.634;2023-05-22T02:16:38;100609.53;;;16.88;56.19
61528;BME280;47395;42.032;-8.634;2023-05-22T02:18:39;100582.28;;;16.84;56.51
61528;BME280;47395;42.032;-8.634;2023-05-22T02:20:41;100579.75;;;16.83;56.36
61528;BME280;47395;42.032;-8.634;2023-05-22T02:22:46;100590.25;;;16.84;56.64
61528;BME280;47395;42.032;-8.634;2023-05-22T02:24:47;100571.19;;;16.91;56.66
61528;BME280;47395;42.032;-8.634;2023-05-22T02:26:49;100563.28;;;17.01;56.34
61528;BME280;47395;42.032;-8.634;2023-05-22T02:28:51;100556.88;;;17.03;56.55
61528;BME280;47395;42.032;-8.634;2023-05-22T02:30:51;100566.13;;;17.11;56.20
61528;BME280;47395;42.032;-8.634;2023-05-22T02:32:52;100551.72;;;17.02;56.30
61528;BME280;47395;42.032;-8.634;2023-05-22T02:34:53;100536.59;;;16.91;56.28
61528;BME280;47395;42.032;-8.634;2023-05-22T02:36:54;100543.81;;;16.89;56.57
61528;BME280;47395;42.032;-8.634;2023-05-22T02:38:55;100545.66;;;16.88;56.40
61528;BME280;47395;42.032;-8.634;2023-05-22T02:40:57;100537.78;;;16.87;56.58
61528;BME280;47395;42.032;-8.634;2023-05-22T02:42:58;100553.75;;;16.87;56.79
61528;BME280;47395;42.032;-8.634;2023-05-22T02:45:00;100555.19;;;16.79;56.67
61528;BME280;47395;42.032;-8.634;2023-05-22T02:47:01;100544.91;;;16.86;56.92
61528;BME280;47395;42.032;-8.634;2023-05-22T02:49:02;100542.88;;;16.78;56.58
61528;BME280;47395;42.032;-8.634;2023-05-22T02:51:03;100557.00;;;16.79;57.03
61528;BME280;47395;42.032;-8.634;2023-05-22T02:53:04;100550.25;;;16.86;56.52
61528;BME280;47395;42.032;-8.634;2023-05-22T02:55:05;100554.72;;;16.97;56.36
61528;BME280;47395;42.032;-8.634;2023-05-22T02:57:07;100543.72;;;16.90;56.23
61528;BME280;47395;42.032;-8.634;2023-05-22T02:59:08;100554.72;;;16.97;56.46
61528;BME280;47395;42.032;-8.634;2023-05-22T03:01:09;100553.03;;;16.96;56.27
61528;BME280;47395;42.032;-8.634;2023-05-22T03:03:10;100565.22;;;16.87;56.31
61528;BME280;47395;42.032;-8.634;2023-05-22T03:05:12;100566.56;;;16.81;56.72
61528;BME280;47395;42.032;-8.634;2023-05-22T03:07:16;100564.41;;;16.87;56.80
61528;BME280;47395;42.032;-8.634;2023-05-22T03:09:19;100570.31;;;16.90;56.48
61528;BME280;47395;42.032;-8.634;2023-05-22T03:11:20;100571.28;;;16.78;56.79
61528;BME280;47395;42.032;-8.634;2023-05-22T03:13:21;100564.75;;;16.82;57.00
61528;BME280;47395;42.032;-8.634;2023-05-22T03:15:22;100559.69;;;16.90;56.72
61528;BME280;47395;42.032;-8.634;2023-05-22T03:17:26;100559.69;;;16.90;56.89
61528;BME280;47395;42.032;-8.634;2023-05-22T03:19:26;100559.78;;;16.89;56.77
61528;BME280;47395;42.032;-8.634;2023-05-22T03:21:27;100559.69;;;16.90;56.82
61528;BME280;47395;42.032;-8.634;2023-05-22T03:23:28;100559.47;;;17.05;56.44
61528;BME280;47395;42.032;-8.634;2023-05-22T03:25:29;100544.56;;;16.79;56.89
61528;BME280;47395;42.032;-8.634;2023-05-22T03:27:29;100546.34;;;16.79;56.92
61528;BME280;47395;42.032;-8.634;2023-05-22T03:29:30;100554.47;;;16.77;57.06
61528;BME280;47395;42.032;-8.634;2023-05-22T03:31:31;100564.41;;;16.87;56.96
61528;BME280;47395;42.032;-8.634;2023-05-22T03:33:39;100560.41;;;17.04;56.48
61528;BME280;47395;42.032;-8.634;2023-05-22T03:35:41;100562.09;;;16.82;56.89
61528;BME280;47395;42.032;-8.634;2023-05-22T03:37:45;100554.22;;;17.03;56.85
61528;BME280;47395;42.032;-8.634;2023-05-22T03:39:46;100555.81;;;17.06;56.45
61528;BME280;47395;42.032;-8.634;2023-05-22T03:41:54;100561.75;;;17.21;55.98
61528;BME280;47395;42.032;-8.634;2023-05-22T03:43:57;100555.56;;;17.32;55.91
61528;BME280;47395;42.032;-8.634;2023-05-22T03:45:58;100551.56;;;17.38;55.59
61528;BME280;47395;42.032;-8.634;2023-05-22T03:47:59;100557.75;;;17.27;56.05
61528;BME280;47395;42.032;-8.634;2023-05-22T03:50:00;100554.13;;;17.05;56.38
61528;BME280;47395;42.032;-8.634;2023-05-22T03:52:02;100560.31;;;17.05;56.30
61528;BME280;47395;42.032;-8.634;2023-05-22T03:54:03;100554.38;;;17.02;56.57
61528;BME280;47395;42.032;-8.634;2023-05-22T03:56:04;100552.81;;;17.11;56.51
61528;BME280;47395;42.032;-8.634;2023-05-22T03:58:05;100549.41;;;17.20;56.28
61528;BME280;47395;42.032;-8.634;2023-05-22T04:00:06;100554.84;;;17.30;56.00
61528;BME280;47395;42.032;-8.634;2023-05-22T04:04:38;100562.25;;;17.15;56.26
61528;BME280;47395;42.032;-8.634;2023-05-22T04:06:39;100563.56;;;17.09;56.28
61528;BME280;47395;42.032;-8.634;2023-05-22T04:08:42;100567.53;;;17.03;56.85
61528;BME280;47395;42.032;-8.634;2023-05-22T04:10:43;100563.81;;;17.06;56.59
61528;BME280;47395;42.032;-8.634;2023-05-22T04:12:46;100564.16;;;17.01;56.90
61528;BME280;47395;42.032;-8.634;2023-05-22T04:14:47;100570.16;;;16.57;57.65
61528;BME280;47395;42.032;-8.634;2023-05-22T04:16:47;100571.13;;;16.68;57.65
61528;BME280;47395;42.032;-8.634;2023-05-22T04:18:48;100564.75;;;16.70;57.51
61528;BME280;47395;42.032;-8.634;2023-05-22T04:20:50;100563.53;;;16.63;57.68
61528;BME280;47395;42.032;-8.634;2023-05-22T04:22:52;100570.69;;;16.74;57.79
61528;BME280;47395;42.032;-8.634;2023-05-22T04:24:56;100568.28;;;16.82;57.34
61528;BME280;47395;42.032;-8.634;2023-05-22T04:26:58;100578.06;;;16.93;56.92
61528;BME280;47395;42.032;-8.634;2023-05-22T04:28:59;100566.31;;;16.84;57.28
61528;BME280;47395;42.032;-8.634;2023-05-22T04:31:01;100569.09;;;16.83;57.25
61528;BME280;47395;42.032;-8.634;2023-05-22T04:33:05;100585.06;;;16.83;57.22
61528;BME280;47395;42.032;-8.634;2023-05-22T04:35:08;100590.28;;;16.73;57.28
61528;BME280;47395;42.032;-8.634;2023-05-22T04:37:09;100594.25;;;16.79;57.16
61528;BME280;47395;42.032;-8.634;2023-05-22T04:39:10;100575.13;;;16.62;57.74
61528;BME280;47395;42.032;-8.634;2023-05-22T04:41:11;100568.34;;;16.58;57.71
61528;BME280;47395;42.032;-8.634;2023-05-22T04:43:12;100577.66;;;16.52;58.26
61528;BME280;47395;42.032;-8.634;2023-05-22T04:45:13;100574.75;;;16.55;57.82
61528;BME280;47395;42.032;-8.634;2023-05-22T04:47:14;100563.22;;;16.43;58.27
61528;BME280;47395;42.032;-8.634;2023-05-22T04:49:15;100557.22;;;16.53;58.52
61528;BME280;47395;42.032;-8.634;2023-05-22T04:51:16;100572.81;;;16.46;57.76
61528;BME280;47395;42.032;-8.634;2023-05-22T04:53:17;100564.59;;;16.49;58.32
61528;BME280;47395;42.032;-8.634;2023-05-22T04:55:17;100570.88;;;16.48;58.22
61528;BME280;47395;42.032;-8.634;2023-05-22T04:57:18;100572.66;;;16.48;58.12
61528;BME280;47395;42.032;-8.634;2023-05-22T04:59:20;100570.97;;;16.47;58.09
61528;BME280;47395;42.032;-8.634;2023-05-22T05:01:22;100564.56;;;16.38;58.49
61528;BME280;47395;42.032;-8.634;2023-05-22T05:03:24;100569.03;;;16.37;58.72
61528;BME280;47395;42.032;-8.634;2023-05-22T05:05:25;100567.94;;;16.40;58.36
61528;BME280;47395;42.032;-8.634;2023-05-22T05:07:27;100560.09;;;16.38;58.28
61528;BME280;47395;42.032;-8.634;2023-05-22T05:09:28;100567.94;;;16.28;58.99
61528;BME280;47395;42.032;-8.634;2023-05-22T05:11:29;100562.47;;;16.30;58.86
61528;BME280;47395;42.032;-8.634;2023-05-22T05:13:30;100566.47;;;16.36;58.80
61528;BME280;47395;42.032;-8.634;2023-05-22T05:15:31;100571.91;;;16.34;58.61
61528;BME280;47395;42.032;-8.634;2023-05-22T05:17:36;100566.25;;;16.39;58.69
61528;BME280;47395;42.032;-8.634;2023-05-22T05:19:36;100572.28;;;16.41;58.38
61528;BME280;47395;42.032;-8.634;2023-05-22T05:21:38;100569.78;;;16.51;58.53
61528;BME280;47395;42.032;-8.634;2023-05-22T05:23:39;100592.53;;;16.55;58.51
61528;BME280;47395;42.032;-8.634;2023-05-22T05:25:40;100594.97;;;16.69;57.86
61528;BME280;47395;42.032;-8.634;2023-05-22T05:27:41;100600.16;;;16.71;57.80
61528;BME280;47395;42.032;-8.634;2023-05-22T05:29:43;100613.59;;;16.69;57.75
61528;BME280;47395;42.032;-8.634;2023-05-22T05:31:51;100611.66;;;16.72;57.61
61528;BME280;47395;42.032;-8.634;2023-05-22T05:34:25;100603.69;;;16.72;57.41
61528;BME280;47395;42.032;-8.634;2023-05-22T05:36:33;100603.09;;;16.79;57.39
61528;BME280;47395;42.032;-8.634;2023-05-22T05:38:34;100596.44;;;16.85;57.32
61528;BME280;47395;42.032;-8.634;2023-05-22T05:40:35;100598.72;;;16.78;57.27
61528;BME280;47395;42.032;-8.634;2023-05-22T05:42:38;100591.47;;;16.80;57.52
61528;BME280;47395;42.032;-8.634;2023-05-22T05:44:40;100606.22;;;16.73;57.73
61528;BME280;47395;42.032;-8.634;2023-05-22T05:46:41;100611.06;;;16.79;57.76
61528;BME280;47395;42.032;-8.634;2023-05-22T05:48:42;100612.28;;;16.87;57.28
61528;BME280;47395;42.032;-8.634;2023-05-22T05:50:43;100622.94;;;16.87;57.42
61528;BME280;47395;42.032;-8.634;2023-05-22T05:52:45;100643.84;;;16.80;57.52
61528;BME280;47395;42.032;-8.634;2023-05-22T05:54:51;100627.75;;;16.81;57.84
61528;BME280;47395;42.032;-8.634;2023-05-22T05:56:54;100640.69;;;16.86;57.56
61528;BME280;47395;42.032;-8.634;2023-05-22T05:58:55;100636.84;;;16.90;57.28
61528;BME280;47395;42.032;-8.634;2023-05-22T06:01:07;100628.25;;;16.87;57.42
61528;BME280;47395;42.032;-8.634;2023-05-22T06:03:10;100654.13;;;16.84;57.32
61528;BME280;47395;42.032;-8.634;2023-05-22T06:05:30;100657.75;;;16.83;57.65
61528;BME280;47395;42.032;-8.634;2023-05-22T06:07:44;100661.38;;;16.82;57.47
61528;BME280;47395;42.032;-8.634;2023-05-22T06:09:46;100653.03;;;16.87;57.33
61528;BME280;47395;42.032;-8.634;2023-05-22T06:12:10;100654.16;;;16.96;57.17
61528;BME280;47395;42.032;-8.634;2023-05-22T06:14:13;100662.84;;;16.98;56.85
61528;BME280;47395;42.032;-8.634;2023-05-22T06:16:13;100677.50;;;17.04;57.31
61528;BME280;47395;42.032;-8.634;2023-05-22T06:18:15;100676.72;;;17.15;56.65
61528;BME280;47395;42.032;-8.634;2023-05-22T06:20:16;100674.31;;;17.23;56.53
61528;BME280;47395;42.032;-8.634;2023-05-22T06:22:17;100679.13;;;17.29;56.21
61528;BME280;47395;42.032;-8.634;2023-05-22T06:24:21;100676.47;;;17.41;56.32
61528;BME280;47395;42.032;-8.634;2023-05-22T06:26:24;100662.06;;;17.43;55.91
61528;BME280;47395;42.032;-8.634;2023-05-22T06:28:26;100659.53;;;17.53;55.95
61528;BME280;47395;42.032;-8.634;2023-05-22T06:30:27;100664.97;;;17.52;55.59
61528;BME280;47395;42.032;-8.634;2023-05-22T06:32:28;100656.00;;;17.64;55.21
61528;BME280;47395;42.032;-8.634;2023-05-22T06:34:29;100659.47;;;17.87;55.03
61528;BME280;47395;42.032;-8.634;2023-05-22T06:36:32;100672.56;;;17.91;54.19
61528;BME280;47395;42.032;-8.634;2023-05-22T06:38:34;100659.63;;;17.86;54.47
61528;BME280;47395;42.032;-8.634;2023-05-22T06:40:38;100682.13;;;17.93;54.58
61528;BME280;47395;42.032;-8.634;2023-05-22T06:42:46;100667.56;;;17.97;53.80
61528;BME280;47395;42.032;-8.634;2023-05-22T06:45:22;100709.72;;;18.04;54.12
61528;BME280;47395;42.032;-8.634;2023-05-22T06:47:53;100693.03;;;18.13;54.18
61528;BME280;47395;42.032;-8.634;2023-05-22T06:49:55;100681.47;;;18.01;54.31
61528;BME280;47395;42.032;-8.634;2023-05-22T06:51:56;100692.88;;;18.03;53.82
61528;BME280;47395;42.032;-8.634;2023-05-22T06:53:57;100682.81;;;18.18;53.99
61528;BME280;47395;42.032;-8.634;2023-05-22T06:56:02;100688.03;;;19.16;51.67
61528;BME280;47395;42.032;-8.634;2023-05-22T06:58:26;100694.59;;;20.55;47.66
61528;BME280;47395;42.032;-8.634;2023-05-22T07:00:28;100696.47;;;21.32;46.33
61528;BME280;47395;42.032;-8.634;2023-05-22T07:02:37;100710.53;;;21.82;44.85
61528;BME280;47395;42.032;-8.634;2023-05-22T07:04:57;100705.59;;;20.52;47.73
61528;BME280;47395;42.032;-8.634;2023-05-22T07:07:05;100712.78;;;19.81;49.13
61528;BME280;47395;42.032;-8.634;2023-05-22T07:09:07;100711.09;;;19.90;48.51
61528;BME280;47395;42.032;-8.634;2023-05-22T07:11:08;100708.56;;;20.89;46.71
61528;BME280;47395;42.032;-8.634;2023-05-22T07:13:09;100706.41;;;21.02;46.37
61528;BME280;47395;42.032;-8.634;2023-05-22T07:15:11;100702.34;;;20.98;46.27
61528;BME280;47395;42.032;-8.634;2023-05-22T07:17:15;100705.88;;;20.89;46.74
61528;BME280;47395;42.032;-8.634;2023-05-22T07:19:18;100701.63;;;20.66;47.76
61528;BME280;47395;42.032;-8.634;2023-05-22T07:21:19;100699.03;;;19.95;48.71
61528;BME280;47395;42.032;-8.634;2023-05-22T07:23:24;100702.44;;;20.07;48.32
61528;BME280;47395;42.032;-8.634;2023-05-22T07:25:24;100688.97;;;20.19;48.13
61528;BME280;47395;42.032;-8.634;2023-05-22T07:27:25;100695.75;;;21.30;46.35
61528;BME280;47395;42.032;-8.634;2023-05-22T07:29:27;100699.03;;;23.52;41.64
61528;BME280;47395;42.032;-8.634;2023-05-22T07:31:29;100684.94;;;25.10;38.19
61528;BME280;47395;42.032;-8.634;2023-05-22T07:33:30;100699.41;;;26.29;35.77
61528;BME280;47395;42.032;-8.634;2023-05-22T07:35:32;100709.13;;;27.45;33.85
61528;BME280;47395;42.032;-8.634;2023-05-22T07:37:34;100710.41;;;28.32;32.96
61528;BME280;47395;42.032;-8.634;2023-05-22T07:39:35;100709.34;;;28.33;32.47
61528;BME280;47395;42.032;-8.634;2023-05-22T07:41:36;100720.88;;;28.41;31.82
61528;BME280;47395;42.032;-8.634;2023-05-22T07:43:37;100726.72;;;28.38;32.36
61528;BME280;47395;42.032;-8.634;2023-05-22T07:45:38;100712.63;;;28.28;32.41
61528;BME280;47395;42.032;-8.634;2023-05-22T07:47:42;100724.75;;;28.54;31.87
61528;BME280;47395;42.032;-8.634;2023-05-22T07:49:44;100725.41;;;29.07;31.34
61528;BME280;47395;42.032;-8.634;2023-05-22T07:51:45;100730.13;;;28.98;31.20
61528;BME280;47395;42.032;-8.634;2023-05-22T07:53:47;100737.75;;;29.09;30.64
61528;BME280;47395;42.032;-8.634;2023-05-22T07:55:48;100735.31;;;28.92;30.82
61528;BME280;47395;42.032;-8.634;2023-05-22T07:57:49;100738.22;;;29.55;29.64
61528;BME280;47395;42.032;-8.634;2023-05-22T08:00:00;100743.78;;;29.47;30.42
61528;BME280;47395;42.032;-8.634;2023-05-22T08:02:13;100744.81;;;30.50;29.47
61528;BME280;47395;42.032;-8.634;2023-05-22T08:04:14;100742.09;;;31.11;28.71
61528;BME280;47395;42.032;-8.634;2023-05-22T08:06:15;100746.50;;;32.24;27.83
61528;BME280;47395;42.032;-8.634;2023-05-22T08:08:17;100753.84;;;31.77;27.25
61528;BME280;47395;42.032;-8.634;2023-05-22T08:10:18;100754.50;;;32.19;26.55
61528;BME280;47395;42.032;-8.634;2023-05-22T08:12:19;100757.09;;;32.71;24.98
61528;BME280;47395;42.032;-8.634;2023-05-22T08:26:17;100749.97;;;31.46;26.63
61528;BME280;47395;42.032;-8.634;2023-05-22T08:28:19;100731.34;;;31.43;26.27
61528;BME280;47395;42.032;-8.634;2023-05-22T08:30:20;100745.38;;;29.34;29.00
61528;BME280;47395;42.032;-8.634;2023-05-22T08:32:21;100735.88;;;30.01;29.10
61528;BME280;47395;42.032;-8.634;2023-05-22T08:34:23;100727.84;;;29.72;29.04
61528;BME280;47395;42.032;-8.634;2023-05-22T08:36:24;100729.44;;;29.17;29.48
61528;BME280;47395;42.032;-8.634;2023-05-22T08:38:25;100738.78;;;28.36;30.82
61528;BME280;47395;42.032;-8.634;2023-05-22T08:40:36;100727.47;;;28.54;30.62
61528;BME280;47395;42.032;-8.634;2023-05-22T08:42:39;100742.75;;;27.66;33.34
61528;BME280;47395;42.032;-8.634;2023-05-22T08:44:42;100740.53;;;29.23;30.61
61528;BME280;47395;42.032;-8.634;2023-05-22T08:46:43;100729.09;;;29.69;29.98
61528;BME280;47395;42.032;-8.634;2023-05-22T08:48:45;100730.63;;;30.75;27.98
61528;BME280;47395;42.032;-8.634;2023-05-22T08:50:52;100735.78;;;30.36;28.71
61528;BME280;47395;42.032;-8.634;2023-05-22T08:52:59;100740.91;;;29.97;28.92
61528;BME280;47395;42.032;-8.634;2023-05-22T08:55:04;100743.59;;;30.73;28.45
61528;BME280;47395;42.032;-8.634;2023-05-22T08:57:05;100748.56;;;31.10;28.32
61528;BME280;47395;42.032;-8.634;2023-05-22T08:59:07;100742.63;;;31.60;27.21
61528;BME280;47395;42.032;-8.634;2023-05-22T09:01:08;100747.31;;;32.31;26.48
61528;BME280;47395;42.032;-8.634;2023-05-22T09:03:09;100741.69;;;32.26;26.12
61528;BME280;47395;42.032;-8.634;2023-05-22T09:05:13;100745.38;;;31.54;26.50
61528;BME280;47395;42.032;-8.634;2023-05-22T09:07:15;100742.97;;;30.91;27.95
61528;BME280;47395;42.032;-8.634;2023-05-22T09:09:17;100749.13;;;31.59;27.06
61528;BME280;47395;42.032;-8.634;2023-05-22T09:11:18;100735.91;;;31.63;28.20
61528;BME280;47395;42.032;-8.634;2023-05-22T09:13:26;100738.50;;;32.29;27.20
61528;BME280;47395;42.032;-8.634;2023-05-22T09:15:30;100743.88;;;33.38;25.94
61528;BME280;47395;42.032;-8.634;2023-05-22T09:17:31;100741.53;;;33.41;24.97
61528;BME280;47395;42.032;-8.634;2023-05-22T09:19:32;100742.22;;;33.55;25.30
61528;BME280;47395;42.032;-8.634;2023-05-22T09:21:35;100746.16;;;33.41;25.29
61528;BME280;47395;42.032;-8.634;2023-05-22T09:23:36;100739.28;;;33.88;24.47
61528;BME280;47395;42.032;-8.634;2023-05-22T09:25:41;100729.72;;;34.28;23.96
61528;BME280;47395;42.032;-8.634;2023-05-22T09:27:44;100732.03;;;34.12;23.79
61528;BME280;47395;42.032;-8.634;2023-05-22T09:29:54;100726.56;;;33.81;24.42
61528;BME280;47395;42.032;-8.634;2023-05-22T09:31:59;100730.84;;;34.08;23.72
61528;BME280;47395;42.032;-8.634;2023-05-22T09:34:00;100729.22;;;33.32;24.97
61528;BME280;47395;42.032;-8.634;2023-05-22T09:36:01;100722.78;;;32.31;25.09
61528;BME280;47395;42.032;-8.634;2023-05-22T09:38:02;100715.88;;;32.28;25.09
61528;BME280;47395;42.032;-8.634;2023-05-22T09:40:04;100713.31;;;32.85;25.77
61528;BME280;47395;42.032;-8.634;2023-05-22T09:42:07;100716.03;;;32.85;25.94
61528;BME280;47395;42.032;-8.634;2023-05-22T09:44:13;100711.75;;;32.12;26.54
61528;BME280;47395;42.032;-8.634;2023-05-22T09:46:16;100726.00;;;32.72;26.68
61528;BME280;47395;42.032;-8.634;2023-05-22T09:48:19;100720.88;;;33.45;24.33
61528;BME280;47395;42.032;-8.634;2023-05-22T09:50:20;100719.06;;;33.77;24.01
61528;BME280;47395;42.032;-8.634;2023-05-22T09:52:22;100717.19;;;34.08;24.25
61528;BME280;47395;42.032;-8.634;2023-05-22T09:54:24;100714.59;;;34.13;24.57
61528;BME280;47395;42.032;-8.634;2023-05-22T09:56:27;100717.78;;;33.23;24.71
61528;BME280;47395;42.032;-8.634;2023-05-22T09:58:32;100715.72;;;34.60;23.71
61528;BME280;47395;42.032;-8.634;2023-05-22T10:00:35;100724.00;;;34.17;24.83
61528;BME280;47395;42.032;-8.634;2023-05-22T10:02:37;100713.88;;;34.18;24.12
61528;BME280;47395;42.032;-8.634;2023-05-22T10:04:41;100724.72;;;33.94;24.04
61528;BME280;47395;42.032;-8.634;2023-05-22T10:06:49;100717.34;;;34.25;24.58
61528;BME280;47395;42.032;-8.634;2023-05-22T10:08:53;100723.75;;;34.00;24.48
61528;BME280;47395;42.032;-8.634;2023-05-22T10:10:56;100715.00;;;34.53;24.36
61528;BME280;47395;42.032;-8.634;2023-05-22T10:13:02;100717.53;;;35.14;23.90
61528;BME280;47395;42.032;-8.634;2023-05-22T10:15:04;100717.88;;;34.58;24.68
61528;BME280;47395;42.032;-8.634;2023-05-22T10:17:08;100719.94;;;34.86;24.04
61528;BME280;47395;42.032;-8.634;2023-05-22T10:19:11;100721.97;;;35.15;23.22
61528;BME280;47395;42.032;-8.634;2023-05-22T10:21:15;100725.44;;;36.10;23.54
61528;BME280;47395;42.032;-8.634;2023-05-22T10:23:16;100716.22;;;35.05;23.87
61528;BME280;47395;42.032;-8.634;2023-05-22T10:25:17;100715.97;;;36.00;22.22
61528;BME280;47395;42.032;-8.634;2023-05-22T10:27:18;100720.66;;;36.86;21.38
61528;BME280;47395;42.032;-8.634;2023-05-22T10:29:27;100719.88;;;36.04;22.05
61528;BME280;47395;42.032;-8.634;2023-05-22T10:31:51;100708.13;;;36.55;22.29
61528;BME280;47395;42.032;-8.634;2023-05-22T10:34:11;100710.16;;;36.14;22.94
61528;BME280;47395;42.032;-8.634;2023-05-22T10:36:41;100710.72;;;36.45;23.28
61528;BME280;47395;42.032;-8.634;2023-05-22T10:40:06;100714.97;;;37.09;21.91
61528;BME280;47395;42.032;-8.634;2023-05-22T10:41:36;100703.50;;;35.92;22.00
61528;BME280;47395;42.032;-8.634;2023-05-22T10:43:40;100710.59;;;37.31;22.07
61528;BME280;47395;42.032;-8.634;2023-05-22T10:45:45;100715.38;;;37.63;21.64
61528;BME280;47395;42.032;-8.634;2023-05-22T10:47:46;100709.53;;;37.59;21.11
61528;BME280;47395;42.032;-8.634;2023-05-22T10:49:47;100707.78;;;37.26;21.76
61528;BME280;47395;42.032;-8.634;2023-05-22T10:51:58;100710.28;;;36.53;22.30
61528;BME280;47395;42.032;-8.634;2023-05-22T10:54:00;100702.59;;;36.90;21.54
61528;BME280;47395;42.032;-8.634;2023-05-22T10:56:14;100704.97;;;36.81;20.76
61528;BME280;47395;42.032;-8.634;2023-05-22T10:58:29;100706.84;;;37.42;20.54
61528;BME280;47395;42.032;-8.634;2023-05-22T11:00:31;100702.66;;;37.34;20.54
61528;BME280;47395;42.032;-8.634;2023-05-22T11:02:41;100702.31;;;37.53;20.58